sensor_id;sensor_type;location;lat;lon;timestamp;pressure;altitude;pressure_sealevel;temperature;humidity
42169;BME280;27838;43.858;25.974;2023-04-07T00:01:50;100815.91;;;9.67;37.70
42169;BME280;27838;43.858;25.974;2023-04-07T00:04:17;100812.44;;;9.64;38.20
42169;BME280;27838;43.858;25.974;2023-04-07T00:06:43;100815.81;;;9.53;38.14
42169;BME280;27838;43.858;25.974;2023-04-07T00:09:10;100809.75;;;9.49;38.05
42169;BME280;27838;43.858;25.974;2023-04-07T00:11:36;100810.63;;;9.51;38.35
42169;BME280;27838;43.858;25.974;2023-04-07T00:14:03;100821.06;;;9.59;38.64
42169;BME280;27838;43.858;25.974;2023-04-07T00:16:30;100815.88;;;9.63;38.60
42169;BME280;27838;43.858;25.974;2023-04-07T00:18:56;100816.69;;;9.52;38.51
42169;BME280;27838;43.858;25.974;2023-04-07T00:21:23;100807.00;;;9.31;39.04
42169;BME280;27838;43.858;25.974;2023-04-07T00:23:51;100812.22;;;9.31;39.24
42169;BME280;27838;43.858;25.974;2023-04-07T00:26:17;100810.53;;;9.37;39.04
42169;BME280;27838;43.858;25.974;2023-04-07T00:28:44;100830.50;;;9.43;39.38
42169;BME280;27838;43.858;25.974;2023-04-07T00:31:10;100819.19;;;9.36;39.37
42169;BME280;27838;43.858;25.974;2023-04-07T00:33:37;100820.06;;;9.40;38.97
42169;BME280;27838;43.858;25.974;2023-04-07T00:36:04;100807.97;;;9.40;39.61
42169;BME280;27838;43.858;25.974;2023-04-07T00:38:30;100818.34;;;9.39;39.53
42169;BME280;27838;43.858;25.974;2023-04-07T00:40:57;100820.03;;;9.34;40.08
42169;BME280;27838;43.858;25.974;2023-04-07T00:43:24;100823.50;;;9.33;40.19
42169;BME280;27838;43.858;25.974;2023-04-07T00:45:52;100814.81;;;9.31;39.87
42169;BME280;27838;43.858;25.974;2023-04-07T00:48:19;100814.78;;;9.24;40.55
42169;BME280;27838;43.858;25.974;2023-04-07T00:50:46;100817.41;;;9.31;40.09
42169;BME280;27838;43.858;25.974;2023-04-07T00:53:13;100809.63;;;9.34;40.39
42169;BME280;27838;43.858;25.974;2023-04-07T00:55:39;100814.88;;;9.38;39.93
42169;BME280;27838;43.858;25.974;2023-04-07T00:58:06;100822.66;;;9.34;40.25
42169;BME280;27838;43.858;25.974;2023-04-07T01:00:37;100819.16;;;9.32;40.69
42169;BME280;27838;43.858;25.974;2023-04-07T01:03:19;100817.38;;;9.27;40.87
42169;BME280;27838;43.858;25.974;2023-04-07T01:05:59;100809.50;;;9.15;40.79
42169;BME280;27838;43.858;25.974;2023-04-07T01:08:45;100807.81;;;9.20;41.09
42169;BME280;27838;43.858;25.974;2023-04-07T01:11:35;100811.38;;;9.32;41.10
42169;BME280;27838;43.858;25.974;2023-04-07T01:14:03;100805.22;;;9.22;40.54
42169;BME280;27838;43.858;25.974;2023-04-07T01:16:36;100810.50;;;9.30;41.03
42169;BME280;27838;43.858;25.974;2023-04-07T01:22:01;100809.69;;;9.43;40.97
42169;BME280;27838;43.858;25.974;2023-04-07T01:29:59;100804.47;;;9.43;40.68
42169;BME280;27838;43.858;25.974;2023-04-07T01:32:27;100811.44;;;9.44;40.85
42169;BME280;27838;43.858;25.974;2023-04-07T01:34:56;100815.78;;;9.47;40.62
42169;BME280;27838;43.858;25.974;2023-04-07T01:37:24;100813.22;;;9.51;40.73
42169;BME280;27838;43.858;25.974;2023-04-07T01:39:52;100811.47;;;9.52;40.82
42169;BME280;27838;43.858;25.974;2023-04-07T01:42:19;100812.34;;;9.55;40.54
42169;BME280;27838;43.858;25.974;2023-04-07T01:44:46;100812.34;;;9.48;40.69
42169;BME280;27838;43.858;25.974;2023-04-07T01:47:14;100814.06;;;9.47;41.21
42169;BME280;27838;43.858;25.974;2023-04-07T01:49:42;100807.13;;;9.49;40.84
42169;BME280;27838;43.858;25.974;2023-04-07T01:52:09;100812.34;;;9.55;41.18
42169;BME280;27838;43.858;25.974;2023-04-07T01:54:36;100808.06;;;9.62;40.67
42169;BME280;27838;43.858;25.974;2023-04-07T01:57:03;100807.22;;;9.63;40.97
42169;BME280;27838;43.858;25.974;2023-04-07T01:59:30;100802.84;;;9.62;40.67
42169;BME280;27838;43.858;25.974;2023-04-07T02:01:56;100796.78;;;9.58;41.22
42169;BME280;27838;43.858;25.974;2023-04-07T02:04:31;100802.00;;;9.63;40.74
42169;BME280;27838;43.858;25.974;2023-04-07T02:07:07;100808.09;;;9.67;41.02
42169;BME280;27838;43.858;25.974;2023-04-07T02:09:37;100806.38;;;9.69;40.58
42169;BME280;27838;43.858;25.974;2023-04-07T02:12:07;100800.25;;;9.60;40.28
42169;BME280;27838;43.858;25.974;2023-04-07T02:14:35;100788.94;;;9.49;40.51
42169;BME280;27838;43.858;25.974;2023-04-07T02:17:02;100814.13;;;9.58;40.42
42169;BME280;27838;43.858;25.974;2023-04-07T02:19:29;100805.44;;;9.53;40.46
42169;BME280;27838;43.858;25.974;2023-04-07T02:21:56;100794.94;;;9.43;40.20
42169;BME280;27838;43.858;25.974;2023-04-07T02:24:25;100799.34;;;9.49;40.62
42169;BME280;27838;43.858;25.974;2023-04-07T02:26:52;100801.94;;;9.55;40.81
42169;BME280;27838;43.858;25.974;2023-04-07T02:29:18;100795.03;;;9.57;40.31
42169;BME280;27838;43.858;25.974;2023-04-07T02:31:45;100800.22;;;9.59;40.49
42169;BME280;27838;43.858;25.974;2023-04-07T02:34:11;100801.09;;;9.56;40.29
42169;BME280;27838;43.858;25.974;2023-04-07T02:36:38;100812.41;;;9.60;40.29
42169;BME280;27838;43.858;25.974;2023-04-07T02:39:04;100818.44;;;9.54;40.51
42169;BME280;27838;43.858;25.974;2023-04-07T02:41:31;100811.50;;;9.53;40.05
42169;BME280;27838;43.858;25.974;2023-04-07T02:43:57;100809.78;;;9.58;40.10
42169;BME280;27838;43.858;25.974;2023-04-07T02:46:24;100808.91;;;9.61;40.45
42169;BME280;27838;43.858;25.974;2023-04-07T02:48:50;100815.00;;;9.58;40.14
42169;BME280;27838;43.858;25.974;2023-04-07T02:51:17;100816.75;;;9.59;40.00
42169;BME280;27838;43.858;25.974;2023-04-07T02:53:43;100821.06;;;9.60;40.04
42169;BME280;27838;43.858;25.974;2023-04-07T02:56:10;100821.94;;;9.61;40.33
42169;BME280;27838;43.858;25.974;2023-04-07T02:58:37;100821.91;;;9.56;40.58
42169;BME280;27838;43.858;25.974;2023-04-07T03:01:03;100818.47;;;9.60;40.47
42169;BME280;27838;43.858;25.974;2023-04-07T03:03:30;100811.47;;;9.47;40.06
42169;BME280;27838;43.858;25.974;2023-04-07T03:05:56;100827.13;;;9.55;40.59
42169;BME280;27838;43.858;25.974;2023-04-07T03:08:23;100833.19;;;9.57;40.44
42169;BME280;27838;43.858;25.974;2023-04-07T03:10:49;100834.06;;;9.56;40.47
42169;BME280;27838;43.858;25.974;2023-04-07T03:13:16;100835.81;;;9.58;40.51
42169;BME280;27838;43.858;25.974;2023-04-07T03:15:44;100833.19;;;9.55;40.04
42169;BME280;27838;43.858;25.974;2023-04-07T03:18:11;100823.63;;;9.51;40.68
42169;BME280;27838;43.858;25.974;2023-04-07T03:20:38;100828.78;;;9.47;40.09
42169;BME280;27838;43.858;25.974;2023-04-07T03:23:06;100833.97;;;9.42;40.20
42169;BME280;27838;43.858;25.974;2023-04-07T03:25:32;100842.66;;;9.44;40.60
42169;BME280;27838;43.858;25.974;2023-04-07T03:27:59;100838.34;;;9.48;40.59
42169;BME280;27838;43.858;25.974;2023-04-07T03:30:26;100842.72;;;9.53;40.16
42169;BME280;27838;43.858;25.974;2023-04-07T03:32:53;100849.66;;;9.53;39.93
42169;BME280;27838;43.858;25.974;2023-04-07T03:35:19;100850.53;;;9.55;39.96
42169;BME280;27838;43.858;25.974;2023-04-07T03:37:46;100853.13;;;9.53;40.33
42169;BME280;27838;43.858;25.974;2023-04-07T03:40:12;100848.75;;;9.52;40.27
42169;BME280;27838;43.858;25.974;2023-04-07T03:42:39;100851.38;;;9.49;40.19
42169;BME280;27838;43.858;25.974;2023-04-07T03:45:06;100857.44;;;9.51;39.60
42169;BME280;27838;43.858;25.974;2023-04-07T03:47:33;100864.38;;;9.48;39.97
42169;BME280;27838;43.858;25.974;2023-04-07T03:49:59;100856.50;;;9.41;40.07
42169;BME280;27838;43.858;25.974;2023-04-07T03:52:26;100866.09;;;9.45;40.02
42169;BME280;27838;43.858;25.974;2023-04-07T03:54:52;100865.19;;;9.45;40.04
42169;BME280;27838;43.858;25.974;2023-04-07T03:57:19;100866.94;;;9.44;39.57
42169;BME280;27838;43.858;25.974;2023-04-07T03:59:46;100869.50;;;9.41;39.21
42169;BME280;27838;43.858;25.974;2023-04-07T04:02:15;100867.75;;;9.36;39.28
42169;BME280;27838;43.858;25.974;2023-04-07T04:04:42;100877.31;;;9.40;39.76
42169;BME280;27838;43.858;25.974;2023-04-07T04:07:08;100877.31;;;9.37;39.46
42169;BME280;27838;43.858;25.974;2023-04-07T04:09:35;100881.66;;;9.42;39.34
42169;BME280;27838;43.858;25.974;2023-04-07T04:12:01;100888.63;;;9.47;38.94
42169;BME280;27838;43.858;25.974;2023-04-07T04:14:28;100888.66;;;9.50;39.37
42169;BME280;27838;43.858;25.974;2023-04-07T04:16:54;100875.63;;;9.47;38.94
42169;BME280;27838;43.858;25.974;2023-04-07T04:19:21;100891.28;;;9.53;39.10
42169;BME280;27838;43.858;25.974;2023-04-07T04:21:47;100886.09;;;9.57;38.78
42169;BME280;27838;43.858;25.974;2023-04-07T04:24:14;100893.94;;;9.62;38.48
42169;BME280;27838;43.858;25.974;2023-04-07T04:26:41;100897.47;;;9.70;38.56
42169;BME280;27838;43.858;25.974;2023-04-07T04:29:08;100893.16;;;9.72;38.54
42169;BME280;27838;43.858;25.974;2023-04-07T04:31:34;100891.41;;;9.71;38.55
42169;BME280;27838;43.858;25.974;2023-04-07T04:34:01;100900.09;;;9.72;38.52
42169;BME280;27838;43.858;25.974;2023-04-07T04:36:27;100906.19;;;9.75;38.27
42169;BME280;27838;43.858;25.974;2023-04-07T04:38:54;100901.84;;;9.76;38.65
42169;BME280;27838;43.858;25.974;2023-04-07T04:41:20;100914.91;;;9.87;38.24
42169;BME280;27838;43.858;25.974;2023-04-07T04:43:47;100915.75;;;9.81;38.46
42169;BME280;27838;43.858;25.974;2023-04-07T04:46:13;100911.47;;;9.89;38.44
42169;BME280;27838;43.858;25.974;2023-04-07T04:48:40;100919.34;;;9.98;38.16
42169;BME280;27838;43.858;25.974;2023-04-07T04:51:06;100926.34;;;10.09;38.29
42169;BME280;27838;43.858;25.974;2023-04-07T04:53:33;100933.31;;;10.17;38.16
42169;BME280;27838;43.858;25.974;2023-04-07T04:55:59;100929.03;;;10.30;37.72
42169;BME280;27838;43.858;25.974;2023-04-07T04:58:26;100929.09;;;10.39;37.48
42169;BME280;27838;43.858;25.974;2023-04-07T05:00:53;100924.78;;;10.48;37.76
42169;BME280;27838;43.858;25.974;2023-04-07T05:03:23;100937.84;;;10.52;37.47
42169;BME280;27838;43.858;25.974;2023-04-07T05:05:50;100930.03;;;10.57;37.48
42169;BME280;27838;43.858;25.974;2023-04-07T05:08:16;100938.78;;;10.71;37.08
42169;BME280;27838;43.858;25.974;2023-04-07T05:10:43;100946.63;;;10.77;36.98
42169;BME280;27838;43.858;25.974;2023-04-07T05:13:09;100941.44;;;10.85;36.84
42169;BME280;27838;43.858;25.974;2023-04-07T05:15:36;100946.66;;;10.93;36.55
42169;BME280;27838;43.858;25.974;2023-04-07T05:18:03;100946.63;;;10.90;35.70
42169;BME280;27838;43.858;25.974;2023-04-07T05:20:29;100954.50;;;10.96;36.18
42169;BME280;27838;43.858;25.974;2023-04-07T05:22:56;100964.03;;;10.97;35.58
42169;BME280;27838;43.858;25.974;2023-04-07T05:25:22;100955.38;;;11.00;35.73
42169;BME280;27838;43.858;25.974;2023-04-07T05:27:49;100951.91;;;11.07;35.66
42169;BME280;27838;43.858;25.974;2023-04-07T05:30:15;100960.63;;;11.24;35.69
42169;BME280;27838;43.858;25.974;2023-04-07T05:32:42;100948.44;;;11.25;35.67
42169;BME280;27838;43.858;25.974;2023-04-07T05:35:09;100959.75;;;11.44;35.36
42169;BME280;27838;43.858;25.974;2023-04-07T05:37:35;100967.59;;;11.42;34.94
42169;BME280;27838;43.858;25.974;2023-04-07T05:40:02;100959.78;;;11.38;34.49
42169;BME280;27838;43.858;25.974;2023-04-07T05:42:29;100968.47;;;11.41;34.49
42169;BME280;27838;43.858;25.974;2023-04-07T05:44:55;100972.81;;;11.42;34.12
42169;BME280;27838;43.858;25.974;2023-04-07T05:47:22;100977.16;;;11.40;34.53
42169;BME280;27838;43.858;25.974;2023-04-07T05:49:48;100959.78;;;11.38;34.72
42169;BME280;27838;43.858;25.974;2023-04-07T05:52:15;100983.25;;;11.42;34.71
42169;BME280;27838;43.858;25.974;2023-04-07T05:54:41;100984.09;;;11.44;34.53
42169;BME280;27838;43.858;25.974;2023-04-07T05:57:08;100978.91;;;11.41;34.73
42169;BME280;27838;43.858;25.974;2023-04-07T05:59:34;100981.50;;;11.44;34.75
42169;BME280;27838;43.858;25.974;2023-04-07T06:02:02;100983.25;;;11.34;34.98
42169;BME280;27838;43.858;25.974;2023-04-07T06:04:29;100988.44;;;11.28;34.78
42169;BME280;27838;43.858;25.974;2023-04-07T06:07:01;100989.31;;;11.26;34.83
42169;BME280;27838;43.858;25.974;2023-04-07T06:09:28;100990.19;;;11.26;35.27
42169;BME280;27838;43.858;25.974;2023-04-07T06:11:55;100999.75;;;11.35;35.05
42169;BME280;27838;43.858;25.974;2023-04-07T06:14:22;100994.53;;;11.32;35.01
42169;BME280;27838;43.858;25.974;2023-04-07T06:16:49;100999.75;;;11.35;34.91
42169;BME280;27838;43.858;25.974;2023-04-07T06:19:16;101003.28;;;11.45;34.85
42169;BME280;27838;43.858;25.974;2023-04-07T06:21:42;101000.66;;;11.60;34.94
42169;BME280;27838;43.858;25.974;2023-04-07T06:24:09;101006.75;;;11.70;34.79
42169;BME280;27838;43.858;25.974;2023-04-07T06:26:35;100986.75;;;11.64;34.56
42169;BME280;27838;43.858;25.974;2023-04-07T06:29:02;100978.91;;;11.53;35.21
42169;BME280;27838;43.858;25.974;2023-04-07T06:31:28;100999.78;;;11.60;34.86
42169;BME280;27838;43.858;25.974;2023-04-07T06:33:55;100995.44;;;11.60;35.36
42169;BME280;27838;43.858;25.974;2023-04-07T06:36:22;101007.63;;;11.67;35.29
42169;BME280;27838;43.858;25.974;2023-04-07T06:38:49;101005.00;;;11.77;35.42
42169;BME280;27838;43.858;25.974;2023-04-07T06:41:15;101012.84;;;11.87;35.62
42169;BME280;27838;43.858;25.974;2023-04-07T06:43:43;101020.69;;;11.97;35.52
42169;BME280;27838;43.858;25.974;2023-04-07T06:46:10;101013.72;;;12.11;35.47
42169;BME280;27838;43.858;25.974;2023-04-07T06:48:36;101016.34;;;12.06;35.39
42169;BME280;27838;43.858;25.974;2023-04-07T06:51:03;101027.66;;;12.04;36.24
42169;BME280;27838;43.858;25.974;2023-04-07T06:53:30;101027.63;;;12.07;36.23
42169;BME280;27838;43.858;25.974;2023-04-07T06:56:07;101022.44;;;12.16;35.82
42169;BME280;27838;43.858;25.974;2023-04-07T06:58:34;101026.72;;;12.26;35.63
42169;BME280;27838;43.858;25.974;2023-04-07T07:01:01;101018.03;;;12.23;35.98
42169;BME280;27838;43.858;25.974;2023-04-07T07:03:29;101036.28;;;12.37;35.45
42169;BME280;27838;43.858;25.974;2023-04-07T07:05:59;101029.34;;;12.34;35.59
42169;BME280;27838;43.858;25.974;2023-04-07T07:08:26;101041.53;;;12.38;35.47
42169;BME280;27838;43.858;25.974;2023-04-07T07:10:54;101045.00;;;12.42;35.49
42169;BME280;27838;43.858;25.974;2023-04-07T07:13:22;101039.81;;;12.30;35.58
42169;BME280;27838;43.858;25.974;2023-04-07T07:15:49;101042.38;;;12.42;35.76
42169;BME280;27838;43.858;25.974;2023-04-07T07:18:17;101046.72;;;12.49;35.71
42169;BME280;27838;43.858;25.974;2023-04-07T07:20:44;101043.25;;;12.47;35.35
42169;BME280;27838;43.858;25.974;2023-04-07T07:23:11;101051.94;;;12.52;35.62
42169;BME280;27838;43.858;25.974;2023-04-07T07:25:38;101046.72;;;12.60;35.73
42169;BME280;27838;43.858;25.974;2023-04-07T07:28:04;101053.66;;;12.69;35.84
42169;BME280;27838;43.858;25.974;2023-04-07T07:30:31;101057.13;;;12.64;35.26
42169;BME280;27838;43.858;25.974;2023-04-07T07:32:57;101051.91;;;12.69;35.28
42169;BME280;27838;43.858;25.974;2023-04-07T07:35:24;101061.41;;;12.87;35.57
42169;BME280;27838;43.858;25.974;2023-04-07T07:37:51;101060.53;;;12.91;35.66
42169;BME280;27838;43.858;25.974;2023-04-07T07:40:17;101044.84;;;12.88;35.55
42169;BME280;27838;43.858;25.974;2023-04-07T07:42:45;101056.13;;;13.02;35.36
42169;BME280;27838;43.858;25.974;2023-04-07T07:45:12;101056.06;;;13.16;35.36
42169;BME280;27838;43.858;25.974;2023-04-07T07:47:39;101056.00;;;13.29;34.69
42169;BME280;27838;43.858;25.974;2023-04-07T07:50:06;101063.84;;;13.24;33.93
42169;BME280;27838;43.858;25.974;2023-04-07T07:52:33;101067.31;;;13.26;33.67
42169;BME280;27838;43.858;25.974;2023-04-07T07:54:59;101061.28;;;13.19;34.35
42169;BME280;27838;43.858;25.974;2023-04-07T07:57:26;101055.28;;;12.97;34.35
42169;BME280;27838;43.858;25.974;2023-04-07T07:59:52;101050.88;;;13.02;34.71
42169;BME280;27838;43.858;25.974;2023-04-07T08:02:19;101057.84;;;13.08;34.77
42169;BME280;27838;43.858;25.974;2023-04-07T08:04:45;101066.53;;;13.15;34.71
42169;BME280;27838;43.858;25.974;2023-04-07T08:07:12;101073.44;;;13.28;35.50
42169;BME280;27838;43.858;25.974;2023-04-07T08:09:38;101056.00;;;13.27;35.67
42169;BME280;27838;43.858;25.974;2023-04-07T08:12:05;101067.31;;;13.35;35.14
42169;BME280;27838;43.858;25.974;2023-04-07T08:14:31;101070.78;;;13.40;34.22
42169;BME280;27838;43.858;25.974;2023-04-07T08:16:58;101064.56;;;13.58;34.37
42169;BME280;27838;43.858;25.974;2023-04-07T08:19:25;101061.13;;;13.49;34.42
42169;BME280;27838;43.858;25.974;2023-04-07T08:21:51;101071.66;;;13.41;34.69
42169;BME280;27838;43.858;25.974;2023-04-07T08:24:18;101065.59;;;13.25;34.64
42169;BME280;27838;43.858;25.974;2023-04-07T08:26:44;101063.00;;;13.19;35.48
42169;BME280;27838;43.858;25.974;2023-04-07T08:29:11;101069.97;;;13.32;35.28
42169;BME280;27838;43.858;25.974;2023-04-07T08:31:37;101067.25;;;13.48;34.93
42169;BME280;27838;43.858;25.974;2023-04-07T08:34:04;101081.13;;;13.59;34.96
42169;BME280;27838;43.858;25.974;2023-04-07T08:36:30;101072.41;;;13.57;34.51
42169;BME280;27838;43.858;25.974;2023-04-07T08:38:57;101063.59;;;13.72;34.55
42169;BME280;27838;43.858;25.974;2023-04-07T08:41:36;101070.47;;;13.85;35.22
42169;BME280;27838;43.858;25.974;2023-04-07T08:44:03;101071.25;;;14.00;34.27
42169;BME280;27838;43.858;25.974;2023-04-07T08:46:31;101070.13;;;14.24;34.25
42169;BME280;27838;43.858;25.974;2023-04-07T08:49:00;101061.25;;;14.39;33.88
42169;BME280;27838;43.858;25.974;2023-04-07T08:51:29;101062.06;;;14.45;33.41
42169;BME280;27838;43.858;25.974;2023-04-07T08:54:11;101069.00;;;14.49;33.27
42169;BME280;27838;43.858;25.974;2023-04-07T08:56:39;101061.06;;;14.56;33.19
42169;BME280;27838;43.858;25.974;2023-04-07T08:59:07;101044.34;;;14.67;33.20
42169;BME280;27838;43.858;25.974;2023-04-07T09:01:34;101056.38;;;14.85;33.30
42169;BME280;27838;43.858;25.974;2023-04-07T09:04:02;101073.06;;;14.78;33.29
42169;BME280;27838;43.858;25.974;2023-04-07T09:06:30;101051.34;;;14.65;33.14
42169;BME280;27838;43.858;25.974;2023-04-07T09:08:57;101073.09;;;14.77;32.90
42169;BME280;27838;43.858;25.974;2023-04-07T09:11:26;101068.63;;;14.85;32.25
42169;BME280;27838;43.858;25.974;2023-04-07T09:13:53;101070.13;;;15.04;31.97
42169;BME280;27838;43.858;25.974;2023-04-07T09:16:20;101076.28;;;15.02;31.48
42169;BME280;27838;43.858;25.974;2023-04-07T09:18:48;101070.44;;;14.80;32.07
42169;BME280;27838;43.858;25.974;2023-04-07T09:21:14;101066.13;;;14.74;32.47
42169;BME280;27838;43.858;25.974;2023-04-07T09:23:41;101071.50;;;14.63;32.79
42169;BME280;27838;43.858;25.974;2023-04-07T09:28:45;101069.03;;;14.45;32.46
42169;BME280;27838;43.858;25.974;2023-04-07T09:31:12;101086.31;;;14.66;32.49
42169;BME280;27838;43.858;25.974;2023-04-07T09:33:39;101081.84;;;14.77;32.18
42169;BME280;27838;43.858;25.974;2023-04-07T09:36:06;101084.47;;;14.77;31.61
42169;BME280;27838;43.858;25.974;2023-04-07T09:38:37;101082.81;;;14.70;31.61
42169;BME280;27838;43.858;25.974;2023-04-07T09:41:14;101085.34;;;14.75;31.89
42169;BME280;27838;43.858;25.974;2023-04-07T09:43:43;101086.28;;;14.70;31.56
42169;BME280;27838;43.858;25.974;2023-04-07T09:46:15;101071.31;;;14.80;32.26
42169;BME280;27838;43.858;25.974;2023-04-07T09:48:43;101083.19;;;15.10;31.74
42169;BME280;27838;43.858;25.974;2023-04-07T09:51:11;101093.53;;;15.21;31.30
42169;BME280;27838;43.858;25.974;2023-04-07T09:56:09;101095.13;;;15.33;31.08
42169;BME280;27838;43.858;25.974;2023-04-07T09:58:39;101099.75;;;15.14;31.24
42169;BME280;27838;43.858;25.974;2023-04-07T10:01:07;101091.91;;;15.11;31.04
42169;BME280;27838;43.858;25.974;2023-04-07T10:03:35;101093.50;;;15.24;31.15
42169;BME280;27838;43.858;25.974;2023-04-07T10:06:02;101102.06;;;15.39;31.34
42169;BME280;27838;43.858;25.974;2023-04-07T10:08:31;101092.47;;;15.36;31.10
42169;BME280;27838;43.858;25.974;2023-04-07T10:10:59;101092.41;;;15.39;30.91
42169;BME280;27838;43.858;25.974;2023-04-07T10:13:28;101088.91;;;15.40;31.10
42169;BME280;27838;43.858;25.974;2023-04-07T10:15:55;101094.72;;;15.62;31.85
42169;BME280;27838;43.858;25.974;2023-04-07T10:18:27;101098.03;;;15.74;30.87
42169;BME280;27838;43.858;25.974;2023-04-07T10:20:55;101092.06;;;15.64;30.85
42169;BME280;27838;43.858;25.974;2023-04-07T10:23:36;101103.47;;;15.61;30.32
42169;BME280;27838;43.858;25.974;2023-04-07T10:26:06;101091.53;;;15.39;30.83
42169;BME280;27838;43.858;25.974;2023-04-07T10:28:37;101093.38;;;15.34;30.38
42169;BME280;27838;43.858;25.974;2023-04-07T10:31:05;101100.44;;;15.27;30.52
42169;BME280;27838;43.858;25.974;2023-04-07T10:33:50;101096.94;;;15.29;30.78
42169;BME280;27838;43.858;25.974;2023-04-07T10:36:18;101084.50;;;15.41;30.24
42169;BME280;27838;43.858;25.974;2023-04-07T10:41:40;101100.16;;;15.50;29.79
42169;BME280;27838;43.858;25.974;2023-04-07T10:44:08;101091.19;;;15.63;30.04
42169;BME280;27838;43.858;25.974;2023-04-07T10:49:13;101097.69;;;15.97;30.20
42169;BME280;27838;43.858;25.974;2023-04-07T10:51:40;101091.44;;;16.04;29.42
42169;BME280;27838;43.858;25.974;2023-04-07T10:54:20;101098.56;;;15.99;29.33
42169;BME280;27838;43.858;25.974;2023-04-07T10:57:03;101099.19;;;16.13;29.36
42169;BME280;27838;43.858;25.974;2023-04-07T10:59:32;101093.84;;;16.18;29.29
42169;BME280;27838;43.858;25.974;2023-04-07T11:04:43;101095.97;;;15.97;30.65
42169;BME280;27838;43.858;25.974;2023-04-07T11:07:12;101095.25;;;15.86;29.60
42169;BME280;27838;43.858;25.974;2023-04-07T11:09:42;101102.44;;;15.73;29.45
42169;BME280;27838;43.858;25.974;2023-04-07T11:12:21;101099.00;;;15.70;30.48
42169;BME280;27838;43.858;25.974;2023-04-07T11:14:48;101098.91;;;15.76;30.54
42169;BME280;27838;43.858;25.974;2023-04-07T11:17:15;101098.00;;;15.80;30.33
42169;BME280;27838;43.858;25.974;2023-04-07T11:19:52;101094.41;;;15.84;30.00
42169;BME280;27838;43.858;25.974;2023-04-07T11:22:18;101094.38;;;15.87;31.00
42169;BME280;27838;43.858;25.974;2023-04-07T11:24:45;101096.75;;;16.02;30.23
42169;BME280;27838;43.858;25.974;2023-04-07T11:27:12;101094.31;;;15.90;30.00
42169;BME280;27838;43.858;25.974;2023-04-07T11:29:39;101093.63;;;15.74;30.11
42169;BME280;27838;43.858;25.974;2023-04-07T11:32:06;101094.81;;;15.56;30.83
42169;BME280;27838;43.858;25.974;2023-04-07T11:34:35;101083.31;;;15.62;30.66
42169;BME280;27838;43.858;25.974;2023-04-07T11:37:18;101090.25;;;15.69;29.87
42169;BME280;27838;43.858;25.974;2023-04-07T11:39:54;101084.56;;;15.97;29.21
42169;BME280;27838;43.858;25.974;2023-04-07T11:42:37;101095.50;;;16.25;29.47
42169;BME280;27838;43.858;25.974;2023-04-07T11:45:05;101081.22;;;16.38;29.62
42169;BME280;27838;43.858;25.974;2023-04-07T11:47:36;101083.75;;;16.45;29.13
42169;BME280;27838;43.858;25.974;2023-04-07T11:50:03;101068.72;;;16.51;28.62
42169;BME280;27838;43.858;25.974;2023-04-07T11:52:41;101087.69;;;16.67;28.51
42169;BME280;27838;43.858;25.974;2023-04-07T11:55:16;101100.13;;;16.59;28.78
42169;BME280;27838;43.858;25.974;2023-04-07T11:57:43;101090.72;;;16.46;28.64
42169;BME280;27838;43.858;25.974;2023-04-07T12:00:11;101083.09;;;16.30;28.76
42169;BME280;27838;43.858;25.974;2023-04-07T12:02:38;101099.72;;;16.34;28.77
42169;BME280;27838;43.858;25.974;2023-04-07T12:05:06;101092.69;;;16.34;29.34
42169;BME280;27838;43.858;25.974;2023-04-07T12:07:35;101089.88;;;16.43;29.73
42169;BME280;27838;43.858;25.974;2023-04-07T12:10:22;101091.50;;;16.51;30.12
42169;BME280;27838;43.858;25.974;2023-04-07T12:12:50;101090.91;;;16.35;30.08
42169;BME280;27838;43.858;25.974;2023-04-07T12:15:17;101093.53;;;16.36;30.36
42169;BME280;27838;43.858;25.974;2023-04-07T12:17:46;101087.69;;;16.19;30.18
42169;BME280;27838;43.858;25.974;2023-04-07T12:20:14;101091.50;;;16.02;30.46
42169;BME280;27838;43.858;25.974;2023-04-07T12:22:41;101088.94;;;15.96;29.88
42169;BME280;27838;43.858;25.974;2023-04-07T12:25:07;101096.59;;;16.12;29.95
42169;BME280;27838;43.858;25.974;2023-04-07T12:27:34;101094.03;;;16.07;29.36
42169;BME280;27838;43.858;25.974;2023-04-07T12:30:01;101103.53;;;16.14;29.68
42169;BME280;27838;43.858;25.974;2023-04-07T12:32:28;101098.19;;;16.20;29.42
42169;BME280;27838;43.858;25.974;2023-04-07T12:34:57;101104.22;;;16.27;30.26
42169;BME280;27838;43.858;25.974;2023-04-07T12:37:23;101104.28;;;16.22;29.76
42169;BME280;27838;43.858;25.974;2023-04-07T12:39:50;101103.44;;;16.22;29.88
42169;BME280;27838;43.858;25.974;2023-04-07T12:42:16;101107.84;;;16.20;30.40
42169;BME280;27838;43.858;25.974;2023-04-07T12:44:43;101102.72;;;16.11;30.21
42169;BME280;27838;43.858;25.974;2023-04-07T12:47:09;101108.94;;;16.07;30.50
42169;BME280;27838;43.858;25.974;2023-04-07T12:49:36;101109.00;;;16.03;30.76
42169;BME280;27838;43.858;25.974;2023-04-07T12:52:03;101114.41;;;15.94;31.47
42169;BME280;27838;43.858;25.974;2023-04-07T12:54:31;101112.97;;;15.75;32.20
42169;BME280;27838;43.858;25.974;2023-04-07T12:56:57;101124.69;;;15.49;32.80
42169;BME280;27838;43.858;25.974;2023-04-07T12:59:24;101121.34;;;15.38;33.36
42169;BME280;27838;43.858;25.974;2023-04-07T13:01:52;101121.25;;;15.44;33.81
42169;BME280;27838;43.858;25.974;2023-04-07T13:04:18;101117.94;;;15.29;33.58
42169;BME280;27838;43.858;25.974;2023-04-07T13:06:45;101120.13;;;14.94;33.79
42169;BME280;27838;43.858;25.974;2023-04-07T13:09:11;101131.72;;;14.72;34.32